Time;durP1;ratioP1;P1;durP2;ratioP2;P2;SDS_P1;SDS_P2;PMS_P1;PMS_P2;Temp;Humidity;BMP_temperature;BMP_pressure;BME280_temperature;BME280_humidity;BME280_pressure;Samples;Min_cycle;Max_cycle;Signal;HPM_P1;HPM_P2
2022/06/08 00:00:37;;;;;;;;;;;;;;;15.16;100.00;-25493.72;5063618;28;20011;-78
2022/06/08 00:03:16;;;;;;;;;;;;;;;15.21;100.00;-25495.03;5092888;28;19962;-78
2022/06/08 00:05:41;;;;;;;;;;;;;;;15.15;100.00;-25493.44;5092574;28;19916;-78
2022/06/08 00:08:07;;;;;;;;;;;;;;;15.16;100.00;-25493.56;5067237;28;19924;-78
2022/06/08 00:10:32;;;;;;;;;;;;;;;15.08;100.00;-25491.53;5052978;28;19919;-78
2022/06/08 00:13:00;;;;;;;;;;;;;;;15.06;100.00;-25490.97;5035490;28;19925;-78
2022/06/08 00:15:26;;;;;;;;;;;;;;;15.09;100.00;-25491.69;5047470;28;19924;-78
2022/06/08 00:17:51;;;;;;;;;;;;;;;15.08;100.00;-25491.53;5057219;28;20285;-79
2022/06/08 00:20:16;;;;;;;;;;;;;;;15.04;100.00;-25490.38;5071434;28;20049;-78
2022/06/08 00:22:43;;;;;;;;;;;;;;;15.06;100.00;-25490.97;5094074;28;19946;-78
2022/06/08 00:25:09;;;;;;;;;;;;;;;15.01;100.00;-25489.50;5075442;28;19961;-77
2022/06/08 00:27:34;;;;;;;;;;;;;;;15.00;100.00;-25489.22;5075288;28;19920;-79
2022/06/08 00:29:59;;;;;;;;;;;;;;;15.03;100.00;-25489.94;5095239;28;19943;-78
2022/06/08 00:32:25;;;;;;;;;;;;;;;15.03;100.00;-25490.09;5073426;28;19923;-78
2022/06/08 00:34:51;;;;;;;;;;;;;;;15.04;100.00;-25490.22;5057783;28;19928;-78
2022/06/08 00:37:16;;;;;;;;;;;;;;;15.07;100.00;-25491.25;5050921;28;20011;-77
2022/06/08 00:39:42;;;;;;;;;;;;;;;15.08;100.00;-25491.53;5054688;28;20015;-77
2022/06/08 00:42:09;;;;;;;;;;;;;;;15.11;100.00;-25492.13;5059509;28;19969;-78
2022/06/08 00:44:49;;;;;;;;;;;;;;;15.11;100.00;-25492.13;5057969;28;20322;-78
2022/06/08 00:47:35;;;;;;;;;;;;;;;15.05;100.00;-25490.53;5057382;28;19972;-77
2022/06/08 00:50:03;;;;;;;;;;;;;;;14.99;100.00;-25488.78;5058458;28;20014;-77
2022/06/08 00:52:29;;;;;;;;;;;;;;;14.99;100.00;-25488.91;5054999;28;19962;-78
2022/06/08 00:55:00;;;;;;;;;;;;;;;14.97;100.00;-25488.34;5067880;28;19920;-77
2022/06/08 00:57:28;;;;;;;;;;;;;;;14.95;100.00;-25487.59;5075983;28;19924;-77
2022/06/08 01:00:14;;;;;;;;;;;;;;;14.94;100.00;-25487.47;5057800;28;20007;-77
2022/06/08 01:02:40;;;;;;;;;;;;;;;14.92;100.00;-25486.88;5067544;28;19916;-77
2022/06/08 01:05:14;;;;;;;;;;;;;;;14.92;100.00;-25486.88;5044455;28;19940;-77
2022/06/08 01:07:40;;;;;;;;;;;;;;;14.92;100.00;-25486.88;5053523;28;19971;-77
2022/06/08 01:10:06;;;;;;;;;;;;;;;14.93;100.00;-25487.03;5052297;28;19956;-78
2022/06/08 01:12:31;;;;;;;;;;;;;;;14.94;100.00;-25487.31;5069691;28;20014;-77
2022/06/08 01:14:56;;;;;;;;;;;;;;;14.98;100.00;-25488.47;5077594;28;20023;-77
2022/06/08 01:17:21;;;;;;;;;;;;;;;14.90;100.00;-25486.31;5077419;28;20481;-77
2022/06/08 01:19:48;;;;;;;;;;;;;;;14.97;100.00;-25488.34;5095567;28;19922;-77
2022/06/08 01:22:16;;;;;;;;;;;;;;;14.94;100.00;-25487.47;5064793;28;19920;-77
2022/06/08 01:24:43;;;;;;;;;;;;;;;14.98;100.00;-25488.63;5069430;28;19931;-77
2022/06/08 01:27:16;;;;;;;;;;;;;;;15.01;100.00;-25489.50;5077702;28;19920;-77
2022/06/08 01:29:46;;;;;;;;;;;;;;;15.04;100.00;-25490.22;5077198;28;19995;-77
2022/06/08 01:32:18;;;;;;;;;;;;;;;15.00;100.00;-25489.06;5059765;28;19977;-77
2022/06/08 01:35:08;;;;;;;;;;;;;;;14.99;100.00;-25488.91;5037466;28;20434;-78
2022/06/08 01:37:45;;;;;;;;;;;;;;;14.92;100.00;-25486.88;5053557;28;19921;-77
2022/06/08 01:40:31;;;;;;;;;;;;;;;14.89;100.00;-25486.00;5074896;28;20009;-78
2022/06/08 01:43:16;;;;;;;;;;;;;;;14.77;100.00;-25482.66;5051634;28;19960;-77
2022/06/08 01:46:00;;;;;;;;;;;;;;;14.70;100.00;-25480.75;5053248;28;19947;-78
2022/06/08 01:48:44;;;;;;;;;;;;;;;14.63;100.00;-25478.56;5064754;28;20003;-78
2022/06/08 01:51:21;;;;;;;;;;;;;;;14.55;100.00;-25476.53;5074432;28;19916;-77
2022/06/08 01:54:05;;;;;;;;;;;;;;;14.52;100.00;-25475.66;5075516;28;19923;-77
2022/06/08 01:56:36;;;;;;;;;;;;;;;14.49;100.00;-25474.63;5076323;28;19923;-77
2022/06/08 01:59:02;;;;;;;;;;;;;;;14.42;100.00;-25472.75;5043429;28;19921;-76
2022/06/08 02:01:35;;;;;;;;;;;;;;;14.34;100.00;-25470.41;5040540;28;19919;-77
2022/06/08 02:04:05;;;;;;;;;;;;;;;14.34;100.00;-25470.56;5041738;28;20270;-77
2022/06/08 02:06:40;;;;;;;;;;;;;;;14.29;100.00;-25468.97;5053899;28;19974;-77
2022/06/08 02:09:24;;;;;;;;;;;;;;;14.30;100.00;-25469.25;5056636;28;19917;-76
2022/06/08 02:11:59;;;;;;;;;;;;;;;14.23;100.00;-25467.22;5043772;28;20022;-77
2022/06/08 02:14:38;;;;;;;;;;;;;;;14.16;100.00;-25465.31;5035869;28;20347;-77
2022/06/08 02:17:30;;;;;;;;;;;;;;;14.14;100.00;-25464.72;5037971;28;19917;-77
2022/06/08 02:20:02;;;;;;;;;;;;;;;14.14;100.00;-25464.72;5070018;28;19947;-77
2022/06/08 02:22:31;;;;;;;;;;;;;;;14.13;100.00;-25464.44;5065810;28;20046;-76
2022/06/08 02:25:06;;;;;;;;;;;;;;;14.14;100.00;-25464.88;5050684;28;20377;-78
2022/06/08 02:27:34;;;;;;;;;;;;;;;14.14;100.00;-25464.72;5051505;28;19920;-76
2022/06/08 02:30:04;;;;;;;;;;;;;;;14.16;100.00;-25465.47;5051591;28;19917;-78
2022/06/08 02:35:30;;;;;;;;;;;;;;;14.10;100.00;-25463.56;5056926;28;19923;-77
2022/06/08 02:38:05;;;;;;;;;;;;;;;14.08;100.00;-25462.97;5052053;28;20367;-76
2022/06/08 02:40:32;;;;;;;;;;;;;;;14.09;100.00;-25463.41;5038347;28;19924;-76
2022/06/08 02:43:05;;;;;;;;;;;;;;;14.10;100.00;-25463.56;5055403;28;19921;-77
2022/06/08 02:45:34;;;;;;;;;;;;;;;14.11;100.00;-25463.84;5051295;28;19920;-77
2022/06/08 02:48:04;;;;;;;;;;;;;;;14.07;100.00;-25462.69;5052514;28;19931;-76
2022/06/08 02:50:30;;;;;;;;;;;;;;;14.05;100.00;-25462.25;5068068;28;19923;-77
2022/06/08 02:53:17;;;;;;;;;;;;;;;14.03;100.00;-25461.66;5092836;28;19939;-75
2022/06/08 02:55:57;;;;;;;;;;;;;;;14.03;100.00;-25461.53;5074882;28;19916;-77
2022/06/08 02:58:29;;;;;;;;;;;;;;;14.05;100.00;-25462.09;5058885;28;19975;-76
2022/06/08 03:00:58;;;;;;;;;;;;;;;14.03;100.00;-25461.66;5051717;28;19927;-78
2022/06/08 03:03:48;;;;;;;;;;;;;;;14.05;100.00;-25462.25;5035677;28;19913;-78
2022/06/08 03:06:15;;;;;;;;;;;;;;;14.02;100.00;-25461.38;5044735;28;19970;-78
2022/06/08 03:08:49;;;;;;;;;;;;;;;14.03;100.00;-25461.53;5073267;28;19924;-77
2022/06/08 03:11:16;;;;;;;;;;;;;;;14.07;100.00;-25462.84;5047470;28;19964;-78
2022/06/08 03:14:17;;;;;;;;;;;;;;;14.09;100.00;-25463.41;5073224;28;19966;-78
2022/06/08 03:16:53;;;;;;;;;;;;;;;14.16;100.00;-25465.31;4975308;28;19918;-78
2022/06/08 03:19:18;;;;;;;;;;;;;;;14.17;100.00;-25465.75;5057811;28;19936;-77
2022/06/08 03:21:44;;;;;;;;;;;;;;;14.23;100.00;-25467.22;5058466;28;19920;-77
2022/06/08 03:24:10;;;;;;;;;;;;;;;14.24;100.00;-25467.66;5072285;28;19927;-76
2022/06/08 03:26:37;;;;;;;;;;;;;;;14.27;100.00;-25468.53;5073992;28;20006;-76
2022/06/08 03:29:02;;;;;;;;;;;;;;;14.31;100.00;-25469.53;5057324;28;20004;-76
2022/06/08 03:31:28;;;;;;;;;;;;;;;14.43;100.00;-25472.91;5050122;28;20027;-74
2022/06/08 03:33:54;;;;;;;;;;;;;;;14.49;100.00;-25474.78;5034428;28;19924;-76
2022/06/08 03:36:19;;;;;;;;;;;;;;;14.52;100.00;-25475.50;5033960;28;20988;-74
2022/06/08 03:38:44;;;;;;;;;;;;;;;14.54;100.00;-25476.09;5051687;28;19921;-77
2022/06/08 03:41:10;;;;;;;;;;;;;;;14.60;100.00;-25477.84;5052277;28;20391;-75
2022/06/08 03:43:37;;;;;;;;;;;;;;;14.66;100.00;-25479.59;5072773;28;20394;-76
2022/06/08 03:46:03;;;;;;;;;;;;;;;14.72;100.00;-25481.34;5074550;28;20300;-75
2022/06/08 03:48:28;;;;;;;;;;;;;;;14.73;100.00;-25481.50;5037585;28;19921;-77
2022/06/08 03:50:55;;;;;;;;;;;;;;;14.75;100.00;-25482.06;5077968;28;19923;-78
2022/06/08 03:53:43;;;;;;;;;;;;;;;14.70;100.00;-25480.75;5096510;28;19943;-75
2022/06/08 03:56:09;;;;;;;;;;;;;;;14.67;100.00;-25479.75;5064942;28;20315;-77
2022/06/08 03:58:35;;;;;;;;;;;;;;;14.74;100.00;-25481.63;5057835;28;20361;-77
2022/06/08 04:01:01;;;;;;;;;;;;;;;14.76;100.00;-25482.38;5058433;28;19920;-75
2022/06/08 04:03:26;;;;;;;;;;;;;;;14.80;100.00;-25483.38;5057602;28;20361;-75
2022/06/08 04:05:52;;;;;;;;;;;;;;;14.78;100.00;-25482.81;5057169;28;19987;-76
2022/06/08 04:08:17;;;;;;;;;;;;;;;14.78;100.00;-25482.81;5052892;28;20439;-75
2022/06/08 04:10:42;;;;;;;;;;;;;;;14.76;100.00;-25482.22;5062828;28;19928;-77
2022/06/08 04:13:08;;;;;;;;;;;;;;;14.75;100.00;-25481.94;5059494;28;20011;-76
2022/06/08 04:15:45;;;;;;;;;;;;;;;14.74;100.00;-25481.78;5061026;28;19999;-76
2022/06/08 04:18:12;;;;;;;;;;;;;;;14.77;100.00;-25482.50;5038950;28;20430;-76
2022/06/08 04:20:37;;;;;;;;;;;;;;;14.81;100.00;-25483.81;5040326;28;19921;-76
2022/06/08 04:23:04;;;;;;;;;;;;;;;14.85;100.00;-25484.84;5056197;28;19994;-75
2022/06/08 04:25:29;;;;;;;;;;;;;;;15.25;100.00;-25496.34;5066487;28;19920;-76
2022/06/08 04:27:54;;;;;;;;;;;;;;;15.98;100.00;-25517.00;5057384;28;19966;-74
2022/06/08 04:30:20;;;;;;;;;;;;;;;16.04;100.00;-25518.44;5075646;28;19924;-74
2022/06/08 04:32:46;;;;;;;;;;;;;;;16.08;100.00;-25519.75;5056392;28;19917;-76
2022/06/08 04:35:11;;;;;;;;;;;;;;;15.99;100.00;-25517.13;5056466;28;19970;-76
2022/06/08 04:37:37;;;;;;;;;;;;;;;16.12;100.00;-25520.91;5056676;28;20281;-78
2022/06/08 04:40:04;;;;;;;;;;;;;;;16.04;100.00;-25518.59;5057438;28;19916;-77
2022/06/08 04:42:30;;;;;;;;;;;;;;;15.75;100.00;-25510.44;5038828;28;19970;-77
2022/06/08 04:44:56;;;;;;;;;;;;;;;15.70;100.00;-25508.84;5048804;28;20003;-78
2022/06/08 04:47:21;;;;;;;;;;;;;;;15.61;100.00;-25506.53;5058356;28;19927;-79
2022/06/08 04:49:47;;;;;;;;;;;;;;;15.48;100.00;-25502.75;5059347;28;22113;-78
2022/06/08 04:52:12;;;;;;;;;;;;;;;15.44;100.00;-25501.56;5077173;28;20376;-78
2022/06/08 04:54:39;;;;;;;;;;;;;;;15.46;100.00;-25502.00;5075585;28;20342;-78
2022/06/08 04:57:04;;;;;;;;;;;;;;;15.31;100.00;-25497.94;5059461;28;20011;-77
2022/06/08 04:59:29;;;;;;;;;;;;;;;15.42;100.00;-25501.13;5054594;28;20346;-78
2022/06/08 05:01:55;;;;;;;;;;;;;;;15.26;100.00;-25496.63;5056781;28;19917;-77
2022/06/08 05:04:24;;;;;;;;;;;;;;;15.35;100.00;-25498.97;5057311;28;20395;-76
2022/06/08 05:06:49;;;;;;;;;;;;;;;15.28;100.00;-25497.06;5072222;28;19921;-77
2022/06/08 05:09:15;;;;;;;;;;;;;;;15.26;100.00;-25496.63;5073282;28;20168;-76
2022/06/08 05:11:40;;;;;;;;;;;;;;;15.29;100.00;-25497.22;5056307;28;19971;-76
2022/06/08 05:14:06;;;;;;;;;;;;;;;15.30;100.00;-25497.66;5056447;28;20349;-77
2022/06/08 05:16:31;;;;;;;;;;;;;;;15.43;100.00;-25501.28;5062062;28;20352;-78
2022/06/08 05:18:57;;;;;;;;;;;;;;;15.43;100.00;-25501.28;5052611;28;19966;-78
2022/06/08 05:21:22;;;;;;;;;;;;;;;15.50;100.00;-25503.19;5054434;28;20384;-77
2022/06/08 05:23:49;;;;;;;;;;;;;;;15.47;100.00;-25502.31;5052565;28;19913;-78
2022/06/08 05:26:15;;;;;;;;;;;;;;;15.39;100.00;-25500.13;5053506;28;19916;-77
2022/06/08 05:28:41;;;;;;;;;;;;;;;15.41;100.00;-25500.84;5052467;28;19928;-79
2022/06/08 05:31:06;;;;;;;;;;;;;;;15.46;100.00;-25502.00;5064771;28;20372;-79
2022/06/08 05:33:33;;;;;;;;;;;;;;;15.39;100.00;-25500.13;5025760;28;20336;-75
2022/06/08 05:35:58;;;;;;;;;;;;;;;15.43;100.00;-25501.44;5043131;28;19920;-76
2022/06/08 05:38:24;;;;;;;;;;;;;;;15.43;100.00;-25501.44;5055146;28;20007;-75
2022/06/08 05:40:49;;;;;;;;;;;;;;;15.54;100.00;-25504.34;5055185;28;20043;-75
2022/06/08 05:43:15;;;;;;;;;;;;;;;15.42;100.00;-25501.13;5054959;28;20540;-76
2022/06/08 05:45:41;;;;;;;;;;;;;;;15.42;100.00;-25501.00;5057070;28;19921;-76
2022/06/08 05:48:07;;;;;;;;;;;;;;;15.48;100.00;-25502.75;5038177;28;19972;-75
2022/06/08 05:50:32;;;;;;;;;;;;;;;15.65;100.00;-25507.41;5035194;28;19921;-76
2022/06/08 05:52:59;;;;;;;;;;;;;;;15.91;100.00;-25514.97;5052068;28;20340;-74
2022/06/08 05:55:24;;;;;;;;;;;;;;;16.12;100.00;-25520.78;5069821;28;20019;-78
2022/06/08 05:57:51;;;;;;;;;;;;;;;16.33;100.00;-25526.72;5075012;28;20019;-75
2022/06/08 06:00:18;;;;;;;;;;;;;;;16.09;100.00;-25520.03;5068364;28;20427;-75
2022/06/08 06:02:44;;;;;;;;;;;;;;;16.18;100.00;-25522.38;5053591;28;19924;-77
2022/06/08 06:05:09;;;;;;;;;;;;;;;16.41;100.00;-25528.91;5056498;28;19924;-78
2022/06/08 06:07:35;;;;;;;;;;;;;;;16.75;100.00;-25538.63;5055981;28;19931;-78
2022/06/08 06:10:03;;;;;;;;;;;;;;;16.90;100.00;-25542.69;5056138;28;19921;-78
2022/06/08 06:12:29;;;;;;;;;;;;;;;16.99;100.00;-25545.44;5056272;28;20288;-78
2022/06/08 06:14:55;;;;;;;;;;;;;;;16.98;100.00;-25545.16;5073553;28;19924;-77
2022/06/08 06:17:20;;;;;;;;;;;;;;;17.11;100.00;-25548.78;5055318;28;20283;-78
2022/06/08 06:19:45;;;;;;;;;;;;;;;17.20;100.00;-25551.41;5055447;28;19917;-78
2022/06/08 06:22:11;;;;;;;;;;;;;;;17.42;100.00;-25557.47;5055519;28;19985;-79
2022/06/08 06:24:36;;;;;;;;;;;;;;;17.47;100.00;-25558.94;5054696;28;20280;-77
2022/06/08 06:27:01;;;;;;;;;;;;;;;17.34;100.00;-25555.31;5054609;28;19923;-77
2022/06/08 06:29:27;;;;;;;;;;;;;;;17.14;100.00;-25549.66;5054743;28;19916;-78
2022/06/08 06:31:55;;;;;;;;;;;;;;;17.44;100.00;-25558.06;5054383;28;20003;-79
2022/06/08 06:34:23;;;;;;;;;;;;;;;17.48;100.00;-25559.22;5054467;28;19964;-76
2022/06/08 06:36:49;;;;;;;;;;;;;;;17.68;100.00;-25564.72;5053767;28;19921;-76
2022/06/08 06:39:14;;;;;;;;;;;;;;;17.67;100.00;-25564.44;5053759;28;19977;-76
2022/06/08 06:41:40;;;;;;;;;;;;;;;17.66;100.00;-25564.28;5054004;28;19916;-78
2022/06/08 06:44:05;;;;;;;;;;;;;;;17.85;100.00;-25569.50;5054671;28;19917;-76
2022/06/08 06:46:31;;;;;;;;;;;;;;;17.79;100.00;-25567.75;5053724;28;19931;-76
2022/06/08 06:48:56;;;;;;;;;;;;;;;17.80;100.00;-25568.06;5072478;28;19920;-78
2022/06/08 06:51:21;;;;;;;;;;;;;;;17.73;100.00;-25566.19;5053924;28;19917;-77
2022/06/08 06:53:48;;;;;;;;;;;;;;;17.73;100.00;-25566.31;5036886;28;19921;-78
2022/06/08 06:56:13;;;;;;;;;;;;;;;17.74;100.00;-25566.47;5054255;28;20403;-78
2022/06/08 06:58:39;;;;;;;;;;;;;;;17.83;100.00;-25569.06;5053859;28;20018;-76
2022/06/08 07:01:05;;;;;;;;;;;;;;;18.01;100.00;-25574.00;5054069;28;19959;-77
2022/06/08 07:03:30;;;;;;;;;;;;;;;18.22;100.00;-25580.06;5054133;28;19913;-77
2022/06/08 07:05:55;;;;;;;;;;;;;;;18.41;100.00;-25585.44;5053706;28;19917;-76
2022/06/08 07:08:21;;;;;;;;;;;;;;;18.40;100.00;-25585.13;5053652;28;19978;-76
2022/06/08 07:11:32;;;;;;;;;;;;;;;18.75;100.00;-25594.81;5053652;28;19924;-79
2022/06/08 07:13:33;;;;;;;;;;;;;;;18.84;100.00;-25597.56;5070623;28;19920;-77
2022/06/08 07:15:59;;;;;;;;;;;;;;;18.86;100.00;-25598.00;5053385;28;19916;-78
2022/06/08 07:18:24;;;;;;;;;;;;;;;19.24;100.00;-25608.72;5053902;28;19916;-76
2022/06/08 07:20:49;;;;;;;;;;;;;;;19.92;100.00;-25627.75;5053099;28;20277;-78
2022/06/08 07:23:15;;;;;;;;;;;;;;;19.97;100.00;-25629.06;5053470;28;20371;-78
2022/06/08 07:25:40;;;;;;;;;;;;;;;19.92;100.00;-24632.06;5071423;28;19924;-77
2022/06/08 07:28:05;;;;;;;;;;;;;;;20.37;100.00;-20995.47;5065974;28;19979;-77
2022/06/08 07:30:31;;;;;;;;;;;;;;;20.29;100.00;-16013.41;5073869;28;20380;-78
2022/06/08 07:32:56;;;;;;;;;;;;;;;20.84;100.00;-12360.97;5074829;28;20287;-77
2022/06/08 07:35:22;;;;;;;;;;;;;;;21.45;100.00;-1355.22;5089941;28;19920;-80
2022/06/08 07:37:47;;;;;;;;;;;;;;;21.33;100.00;27142.97;5073855;28;19985;-78
2022/06/08 07:40:12;;;;;;;;;;;;;;;20.95;100.00;37898.97;5057989;28;19920;-77
2022/06/08 07:42:39;;;;;;;;;;;;;;;20.88;100.00;43292.75;5074423;28;19916;-78
2022/06/08 07:45:06;;;;;;;;;;;;;;;20.24;100.00;40543.63;5074968;28;19922;-78
2022/06/08 07:47:31;;;;;;;;;;;;;;;20.11;100.00;34808.22;5074820;28;20321;-77
2022/06/08 07:49:56;;;;;;;;;;;;;;;19.61;100.00;24364.34;5064369;28;19978;-76
2022/06/08 07:52:22;;;;;;;;;;;;;;;19.77;100.00;14321.91;5072372;28;19920;-78
2022/06/08 07:54:48;;;;;;;;;;;;;;;19.72;100.00;11644.50;5074411;28;19920;-79
2022/06/08 07:57:16;;;;;;;;;;;;;;;20.22;100.00;11994.53;5074048;28;19948;-78
2022/06/08 07:59:41;;;;;;;;;;;;;;;21.42;100.00;29167.69;5073291;28;19965;-79
2022/06/08 08:02:07;;;;;;;;;;;;;;;22.96;100.00;68269.97;5067475;28;19924;-75
2022/06/08 08:04:35;;;;;;;;;;;;;;;23.87;100.00;141414.59;5066630;28;19920;-77
2022/06/08 08:07:01;;;;;;;;;;;;;;;23.78;100.00;148696.03;5071815;28;19924;-75
2022/06/08 08:09:26;;;;;;;;;;;;;;;22.97;100.00;148491.91;5072203;28;20333;-74
2022/06/08 08:11:53;;;;;;;;;;;;;;;22.78;100.00;148445.72;5071692;28;19939;-76
2022/06/08 08:14:19;;;;;;;;;;;;;;;22.24;100.00;148312.22;5072773;28;19923;-75
2022/06/08 08:16:45;;;;;;;;;;;;;;;22.11;100.00;148277.59;5071972;28;20536;-73
2022/06/08 08:19:11;;;;;;;;;;;;;;;22.00;100.00;148250.66;5072440;28;20352;-73
2022/06/08 08:21:37;;;;;;;;;;;;;;;21.51;100.00;148128.84;5072557;28;19912;-73
2022/06/08 08:24:03;;;;;;;;;;;;;;;21.58;100.00;148145.50;5072022;28;19916;-74
2022/06/08 08:26:28;;;;;;;;;;;;;;;21.22;100.00;148057.00;5072151;28;20036;-72
2022/06/08 08:28:54;;;;;;;;;;;;;;;21.98;100.00;148245.53;5072241;28;19919;-73
2022/06/08 08:31:20;;;;;;;;;;;;;;;21.51;100.00;148128.84;5072072;28;19942;-73
2022/06/08 08:33:45;;;;;;;;;;;;;;;22.29;100.00;148322.50;5072111;28;19912;-76
2022/06/08 08:36:11;;;;;;;;;;;;;;;22.24;100.00;148310.94;5075773;28;19927;-74
2022/06/08 08:38:37;;;;;;;;;;;;;;;21.99;100.00;148249.38;5075458;28;19920;-74
2022/06/08 08:41:02;;;;;;;;;;;;;;;21.82;100.00;148205.78;5075825;28;19991;-76
2022/06/08 08:43:29;;;;;;;;;;;;;;;21.67;100.00;148168.59;5075912;28;19924;-76
2022/06/08 08:45:54;;;;;;;;;;;;;;;21.82;100.00;148207.06;5075611;28;19916;-76
2022/06/08 08:48:25;;;;;;;;;;;;;;;21.33;100.00;148083.91;5075576;28;19916;-74
2022/06/08 08:51:10;;;;;;;;;;;;;;;21.44;100.00;148112.16;5075932;28;19920;-77
2022/06/08 08:53:43;;;;;;;;;;;;;;;20.83;100.00;147959.59;5074839;28;19923;-75
2022/06/08 08:56:14;;;;;;;;;;;;;;;20.74;100.00;141709.19;5075883;28;19922;-75
2022/06/08 08:58:41;;;;;;;;;;;;;;;20.52;100.00;129225.00;5075735;28;19916;-74
2022/06/08 09:01:23;;;;;;;;;;;;;;;20.24;100.00;108541.00;5075952;28;20007;-75
2022/06/08 09:03:54;;;;;;;;;;;;;;;20.01;100.00;90714.41;5075731;28;19990;-77
2022/06/08 09:06:21;;;;;;;;;;;;;;;19.78;100.00;79776.44;5075410;28;19916;-78
2022/06/08 09:08:48;;;;;;;;;;;;;;;19.75;100.00;66188.84;5075716;28;19973;-77
2022/06/08 09:11:22;;;;;;;;;;;;;;;19.50;100.00;52289.16;5076644;28;19916;-78
2022/06/08 09:14:01;;;;;;;;;;;;;;;19.22;100.00;41139.13;5076041;28;20318;-79
2022/06/08 09:16:40;;;;;;;;;;;;;;;18.96;100.00;30366.69;5075740;28;19917;-78
2022/06/08 09:19:18;;;;;;;;;;;;;;;19.10;100.00;17642.31;5093522;28;19982;-79
2022/06/08 09:21:44;;;;;;;;;;;;;;;19.09;100.00;8286.66;5075512;28;19961;-78
2022/06/08 09:24:29;;;;;;;;;;;;;;;18.86;100.00;615.88;5075782;28;19920;-79
2022/06/08 09:26:57;;;;;;;;;;;;;;;18.76;100.00;-8694.81;5074939;28;19920;-77
2022/06/08 09:29:26;;;;;;;;;;;;;;;18.70;100.00;-14003.75;5075900;28;20443;-78
2022/06/08 09:31:51;;;;;;;;;;;;;;;18.33;100.00;-19298.56;5075675;28;20397;-77
2022/06/08 09:34:22;;;;;;;;;;;;;;;18.48;100.00;-25585.53;5074800;28;19989;-76
2022/06/08 09:37:08;;;;;;;;;;;;;;;18.07;100.00;-25575.72;5074377;28;20026;-77
2022/06/08 09:39:34;;;;;;;;;;;;;;;17.82;100.00;-25568.78;5065170;28;19965;-79
2022/06/08 09:42:06;;;;;;;;;;;;;;;17.54;100.00;-25560.81;5055004;28;20263;-75
2022/06/08 09:44:48;;;;;;;;;;;;;;;17.56;100.00;-25561.41;5055418;28;19967;-78
2022/06/08 09:53:03;;;;;;;;;;;;;;;17.07;100.00;-25547.47;5072438;28;19974;-75
2022/06/08 09:55:47;;;;;;;;;;;;;;;17.02;100.00;-25546.19;5054797;28;19980;-74
2022/06/08 09:58:16;;;;;;;;;;;;;;;17.17;100.00;-25550.38;5054881;28;20541;-79
2022/06/08 10:00:46;;;;;;;;;;;;;;;17.07;100.00;-25547.47;5055617;28;19967;-77
2022/06/08 10:03:17;;;;;;;;;;;;;;;17.13;100.00;-25549.22;5055435;28;19955;-78
2022/06/08 10:05:56;;;;;;;;;;;;;;;16.87;100.00;-25541.97;5055582;28;19921;-79
2022/06/08 10:08:24;;;;;;;;;;;;;;;16.78;100.00;-25539.50;5056201;28;20368;-80
2022/06/08 10:10:54;;;;;;;;;;;;;;;16.69;100.00;-25537.03;5056318;28;19966;-80
2022/06/08 10:13:25;;;;;;;;;;;;;;;16.68;100.00;-25536.59;5056048;28;19916;-79
2022/06/08 10:15:54;;;;;;;;;;;;;;;16.78;100.00;-25539.34;5055596;28;19921;-79
2022/06/08 10:18:24;;;;;;;;;;;;;;;16.77;100.00;-25539.22;5060018;28;19923;-81
2022/06/08 10:20:59;;;;;;;;;;;;;;;16.44;100.00;-25529.78;5056797;28;19933;-80
2022/06/08 10:23:31;;;;;;;;;;;;;;;16.25;100.00;-25524.53;5051791;28;19917;-80
2022/06/08 10:26:01;;;;;;;;;;;;;;;16.16;100.00;-25521.94;5038919;28;19920;-79
2022/06/08 10:28:46;;;;;;;;;;;;;;;16.25;100.00;-25524.41;5051518;28;20281;-79
2022/06/08 10:31:14;;;;;;;;;;;;;;;16.21;100.00;-25523.38;5055410;28;19968;-78
2022/06/08 10:33:47;;;;;;;;;;;;;;;16.01;100.00;-25517.72;5072877;28;19942;-78
2022/06/08 10:36:13;;;;;;;;;;;;;;;16.00;100.00;-25517.44;5073462;28;19924;-78
2022/06/08 10:38:43;;;;;;;;;;;;;;;16.07;100.00;-25519.47;5055142;28;20379;-80
2022/06/08 10:44:32;;;;;;;;;;;;;;;16.33;100.00;-25526.72;5073306;28;19927;-79
2022/06/08 10:47:07;;;;;;;;;;;;;;;16.24;100.00;-25524.25;5054931;28;19959;-78
2022/06/08 10:49:33;;;;;;;;;;;;;;;16.42;100.00;-25529.19;5068272;28;19999;-82
2022/06/08 10:52:13;;;;;;;;;;;;;;;16.21;100.00;-25523.25;5056299;28;20333;-82
2022/06/08 10:54:53;;;;;;;;;;;;;;;15.91;100.00;-25514.97;5056035;28;19920;-82
2022/06/08 10:57:34;;;;;;;;;;;;;;;15.86;100.00;-25513.50;5055326;28;19916;-82
2022/06/08 11:00:21;;;;;;;;;;;;;;;15.75;100.00;-25510.44;5070302;28;19927;-83
2022/06/08 11:02:59;;;;;;;;;;;;;;;15.77;100.00;-25510.88;5054631;28;19916;-83
2022/06/08 11:05:34;;;;;;;;;;;;;;;15.81;100.00;-25511.91;5059400;28;19970;-80
2022/06/08 11:08:00;;;;;;;;;;;;;;;15.60;100.00;-25506.22;5053306;28;19920;-77
2022/06/08 11:10:44;;;;;;;;;;;;;;;15.65;100.00;-25507.41;5073459;28;19916;-78
2022/06/08 11:13:24;;;;;;;;;;;;;;;15.76;100.00;-25510.59;5054534;28;19927;-79
2022/06/08 11:15:52;;;;;;;;;;;;;;;15.89;100.00;-25514.22;5053958;28;19982;-78
2022/06/08 11:18:23;;;;;;;;;;;;;;;15.88;100.00;-25513.94;5055690;28;19966;-79
2022/06/08 11:21:07;;;;;;;;;;;;;;;15.81;100.00;-25512.06;5054744;28;19913;-79
2022/06/08 11:23:38;;;;;;;;;;;;;;;15.93;100.00;-25515.41;5055097;28;19982;-81
2022/06/08 11:26:23;;;;;;;;;;;;;;;15.79;100.00;-25511.63;5055917;28;19912;-79
2022/06/08 11:28:50;;;;;;;;;;;;;;;15.68;100.00;-25508.28;5055675;28;19935;-80
2022/06/08 11:31:25;;;;;;;;;;;;;;;15.72;100.00;-25509.56;5054472;28;19921;-80
2022/06/08 11:34:09;;;;;;;;;;;;;;;15.74;100.00;-25510.16;5049693;28;20428;-82
2022/06/08 11:36:40;;;;;;;;;;;;;;;16.03;100.00;-25518.16;5037038;28;19927;-84
2022/06/08 11:39:24;;;;;;;;;;;;;;;15.87;100.00;-25513.78;5071146;28;20376;-79
2022/06/08 11:42:00;;;;;;;;;;;;;;;15.91;100.00;-25514.97;5074117;28;19963;-83
2022/06/08 11:44:31;;;;;;;;;;;;;;;15.90;100.00;-25514.66;5054767;28;19920;-83
2022/06/08 11:47:26;;;;;;;;;;;;;;;15.89;100.00;-25514.38;5073530;28;20006;-83
2022/06/08 11:49:57;;;;;;;;;;;;;;;15.72;100.00;-25509.56;5038741;28;20563;-83
2022/06/08 11:52:24;;;;;;;;;;;;;;;15.61;100.00;-25506.53;5053094;28;20025;-84
2022/06/08 11:54:59;;;;;;;;;;;;;;;15.72;100.00;-25509.44;5057274;28;19924;-84
2022/06/08 11:57:24;;;;;;;;;;;;;;;15.69;100.00;-25508.69;5053389;28;19916;-84
2022/06/08 11:59:52;;;;;;;;;;;;;;;15.92;100.00;-25515.09;5053605;28;19922;-82
2022/06/08 12:02:22;;;;;;;;;;;;;;;16.05;100.00;-25518.88;5053171;28;19969;-82
2022/06/08 12:04:51;;;;;;;;;;;;;;;15.72;100.00;-25509.56;5053495;28;19922;-84
2022/06/08 12:07:41;;;;;;;;;;;;;;;15.75;100.00;-25510.44;5055297;28;20012;-84
2022/06/08 12:10:09;;;;;;;;;;;;;;;15.79;100.00;-25511.63;5057812;28;19913;-86
2022/06/08 12:12:35;;;;;;;;;;;;;;;15.79;100.00;-25511.63;5057035;28;19983;-79
2022/06/08 12:15:20;;;;;;;;;;;;;;;16.04;100.00;-25518.44;5076571;28;19943;-81
2022/06/08 12:17:45;;;;;;;;;;;;;;;15.81;100.00;-25512.06;5008814;28;19916;-83
2022/06/08 12:20:29;;;;;;;;;;;;;;;15.82;100.00;-25512.19;5058966;28;19965;-83
2022/06/08 12:23:00;;;;;;;;;;;;;;;15.83;100.00;-25512.63;5059400;28;19916;-84
2022/06/08 12:25:27;;;;;;;;;;;;;;;15.97;100.00;-25516.69;5059568;28;19917;-83
2022/06/08 12:27:57;;;;;;;;;;;;;;;16.08;100.00;-25519.59;5059133;28;19978;-83
2022/06/08 12:30:34;;;;;;;;;;;;;;;15.97;100.00;-25516.56;5059383;28;19967;-83
2022/06/08 12:33:01;;;;;;;;;;;;;;;16.05;100.00;-25518.88;5059088;28;19939;-84
2022/06/08 12:35:32;;;;;;;;;;;;;;;16.04;100.00;-25518.44;5058280;28;19923;-84
2022/06/08 12:38:16;;;;;;;;;;;;;;;16.21;100.00;-25523.38;5074686;28;19921;-80
2022/06/08 12:40:42;;;;;;;;;;;;;;;16.15;100.00;-25521.63;5057113;28;19963;-81
2022/06/08 12:43:13;;;;;;;;;;;;;;;16.29;100.00;-25525.56;5075180;28;19912;-79
2022/06/08 12:45:41;;;;;;;;;;;;;;;16.25;100.00;-25524.41;5066329;28;19946;-72
2022/06/08 12:48:18;;;;;;;;;;;;;;;16.49;100.00;-25531.38;5076735;28;19912;-78
2022/06/08 12:50:43;;;;;;;;;;;;;;;16.11;100.00;-25520.63;5077936;28;19923;-78
2022/06/08 12:53:12;;;;;;;;;;;;;;;16.07;100.00;-25519.47;5040319;28;19917;-78